sensor_id;sensor_type;location;lat;lon;timestamp;P1;durP1;ratioP1;P2;durP2;ratioP2
70363;SDS011;57785;43.898;1.886;2022-08-01T06:03:00;5.05;;;3.20;;
70363;SDS011;57785;43.898;1.886;2022-08-01T06:05:26;4.15;;;2.60;;
70363;SDS011;57785;43.898;1.886;2022-08-01T06:07:53;6.35;;;2.60;;
70363;SDS011;57785;43.898;1.886;2022-08-01T06:10:19;4.40;;;2.70;;
70363;SDS011;57785;43.898;1.886;2022-08-01T06:12:45;5.80;;;3.03;;
70363;SDS011;57785;43.898;1.886;2022-08-01T06:15:11;4.88;;;2.70;;
70363;SDS011;57785;43.898;1.886;2022-08-01T06:17:37;6.78;;;2.63;;
70363;SDS011;57785;43.898;1.886;2022-08-01T06:20:04;6.18;;;2.53;;
70363;SDS011;57785;43.898;1.886;2022-08-01T06:22:31;8.00;;;2.90;;
70363;SDS011;57785;43.898;1.886;2022-08-01T06:24:57;5.55;;;2.60;;
70363;SDS011;57785;43.898;1.886;2022-08-01T06:27:23;6.93;;;3.00;;
70363;SDS011;57785;43.898;1.886;2022-08-01T06:29:50;6.13;;;2.55;;
70363;SDS011;57785;43.898;1.886;2022-08-01T06:32:22;5.28;;;2.17;;
70363;SDS011;57785;43.898;1.886;2022-08-01T06:34:49;4.18;;;2.40;;
70363;SDS011;57785;43.898;1.886;2022-08-01T06:37:15;9.63;;;3.20;;
70363;SDS011;57785;43.898;1.886;2022-08-01T06:39:41;5.18;;;2.28;;
70363;SDS011;57785;43.898;1.886;2022-08-01T06:42:07;6.38;;;2.50;;
70363;SDS011;57785;43.898;1.886;2022-08-01T06:44:34;7.55;;;2.40;;
70363;SDS011;57785;43.898;1.886;2022-08-01T06:47:00;3.50;;;2.20;;
70363;SDS011;57785;43.898;1.886;2022-08-01T06:49:26;3.30;;;2.20;;
70363;SDS011;57785;43.898;1.886;2022-08-01T06:51:52;3.80;;;2.60;;
70363;SDS011;57785;43.898;1.886;2022-08-01T06:54:18;5.43;;;2.35;;
70363;SDS011;57785;43.898;1.886;2022-08-01T06:56:46;4.35;;;2.40;;
70363;SDS011;57785;43.898;1.886;2022-08-01T06:59:12;5.95;;;2.42;;
70363;SDS011;57785;43.898;1.886;2022-08-01T07:01:38;8.48;;;2.40;;
70363;SDS011;57785;43.898;1.886;2022-08-01T07:04:04;4.63;;;2.40;;
70363;SDS011;57785;43.898;1.886;2022-08-01T07:06:30;5.45;;;2.67;;
70363;SDS011;57785;43.898;1.886;2022-08-01T07:08:56;5.22;;;2.30;;
70363;SDS011;57785;43.898;1.886;2022-08-01T07:11:23;5.90;;;2.45;;
70363;SDS011;57785;43.898;1.886;2022-08-01T07:13:49;3.58;;;2.40;;
70363;SDS011;57785;43.898;1.886;2022-08-01T07:16:15;4.97;;;2.40;;
70363;SDS011;57785;43.898;1.886;2022-08-01T07:18:42;4.03;;;2.45;;
70363;SDS011;57785;43.898;1.886;2022-08-01T07:21:08;5.15;;;2.63;;
70363;SDS011;57785;43.898;1.886;2022-08-01T07:23:34;5.25;;;2.53;;
70363;SDS011;57785;43.898;1.886;2022-08-01T07:26:00;3.03;;;2.35;;
70363;SDS011;57785;43.898;1.886;2022-08-01T07:28:29;5.55;;;2.38;;
70363;SDS011;57785;43.898;1.886;2022-08-01T07:30:55;5.43;;;2.50;;
70363;SDS011;57785;43.898;1.886;2022-08-01T07:33:21;4.75;;;2.60;;
70363;SDS011;57785;43.898;1.886;2022-08-01T07:35:48;7.03;;;2.63;;
70363;SDS011;57785;43.898;1.886;2022-08-01T07:38:14;6.82;;;2.60;;
70363;SDS011;57785;43.898;1.886;2022-08-01T07:40:42;4.40;;;2.72;;
70363;SDS011;57785;43.898;1.886;2022-08-01T07:43:09;7.50;;;2.80;;
70363;SDS011;57785;43.898;1.886;2022-08-01T07:45:35;4.28;;;2.83;;
70363;SDS011;57785;43.898;1.886;2022-08-01T16:48:26;3.15;;;1.73;;
70363;SDS011;57785;43.898;1.886;2022-08-01T16:50:53;2.45;;;1.40;;
70363;SDS011;57785;43.898;1.886;2022-08-01T16:53:19;4.75;;;1.67;;
70363;SDS011;57785;43.898;1.886;2022-08-01T16:55:46;53.97;;;3.55;;
70363;SDS011;57785;43.898;1.886;2022-08-01T16:58:13;3.60;;;1.58;;
70363;SDS011;57785;43.898;1.886;2022-08-01T17:00:39;3.80;;;1.60;;
70363;SDS011;57785;43.898;1.886;2022-08-01T17:03:07;3.97;;;1.30;;
70363;SDS011;57785;43.898;1.886;2022-08-01T17:05:33;4.93;;;1.50;;
70363;SDS011;57785;43.898;1.886;2022-08-01T17:07:59;4.78;;;1.73;;
70363;SDS011;57785;43.898;1.886;2022-08-01T17:10:25;4.07;;;1.30;;
70363;SDS011;57785;43.898;1.886;2022-08-01T17:12:52;2.97;;;1.48;;
70363;SDS011;57785;43.898;1.886;2022-08-01T17:15:18;4.03;;;1.50;;
70363;SDS011;57785;43.898;1.886;2022-08-01T17:17:44;2.85;;;1.42;;
70363;SDS011;57785;43.898;1.886;2022-08-01T17:20:10;2.85;;;1.30;;
70363;SDS011;57785;43.898;1.886;2022-08-01T17:22:36;3.88;;;1.40;;
70363;SDS011;57785;43.898;1.886;2022-08-01T17:25:02;4.13;;;1.45;;
70363;SDS011;57785;43.898;1.886;2022-08-01T17:27:28;9.85;;;1.70;;
70363;SDS011;57785;43.898;1.886;2022-08-01T17:29:54;3.05;;;1.60;;
70363;SDS011;57785;43.898;1.886;2022-08-01T17:32:21;2.78;;;1.50;;
70363;SDS011;57785;43.898;1.886;2022-08-01T17:34:47;25.02;;;2.78;;
70363;SDS011;57785;43.898;1.886;2022-08-01T17:37:14;3.00;;;1.42;;
70363;SDS011;57785;43.898;1.886;2022-08-01T17:39:40;4.70;;;1.40;;
70363;SDS011;57785;43.898;1.886;2022-08-01T17:42:07;1.80;;;1.40;;
70363;SDS011;57785;43.898;1.886;2022-08-01T17:44:35;2.63;;;1.38;;
70363;SDS011;57785;43.898;1.886;2022-08-01T17:47:01;3.15;;;1.60;;
70363;SDS011;57785;43.898;1.886;2022-08-01T17:49:27;2.53;;;1.45;;
70363;SDS011;57785;43.898;1.886;2022-08-01T17:51:53;4.50;;;1.40;;
70363;SDS011;57785;43.898;1.886;2022-08-01T17:54:20;5.63;;;1.60;;
70363;SDS011;57785;43.898;1.886;2022-08-01T17:56:46;13.98;;;4.55;;
70363;SDS011;57785;43.898;1.886;2022-08-01T17:59:12;8.32;;;2.25;;
70363;SDS011;57785;43.898;1.886;2022-08-01T18:01:38;2.80;;;1.80;;
70363;SDS011;57785;43.898;1.886;2022-08-01T18:04:05;6.95;;;2.30;;
70363;SDS011;57785;43.898;1.886;2022-08-01T18:06:31;24.50;;;2.38;;
70363;SDS011;57785;43.898;1.886;2022-08-01T18:08:57;5.60;;;1.60;;
70363;SDS011;57785;43.898;1.886;2022-08-01T18:11:23;4.03;;;1.50;;
70363;SDS011;57785;43.898;1.886;2022-08-01T18:13:49;4.72;;;1.65;;
70363;SDS011;57785;43.898;1.886;2022-08-01T18:16:15;3.72;;;1.48;;
70363;SDS011;57785;43.898;1.886;2022-08-01T18:18:41;6.68;;;1.60;;
70363;SDS011;57785;43.898;1.886;2022-08-01T18:21:08;7.72;;;1.70;;
70363;SDS011;57785;43.898;1.886;2022-08-01T18:23:35;2.38;;;1.50;;
70363;SDS011;57785;43.898;1.886;2022-08-01T18:26:01;5.65;;;1.40;;
70363;SDS011;57785;43.898;1.886;2022-08-01T18:28:30;5.72;;;1.45;;
70363;SDS011;57785;43.898;1.886;2022-08-01T18:30:57;6.50;;;1.70;;
70363;SDS011;57785;43.898;1.886;2022-08-01T18:33:23;23.15;;;13.45;;
70363;SDS011;57785;43.898;1.886;2022-08-01T18:35:49;6.32;;;4.25;;
70363;SDS011;57785;43.898;1.886;2022-08-01T18:38:15;4.55;;;3.53;;
70363;SDS011;57785;43.898;1.886;2022-08-01T18:40:41;4.43;;;2.60;;
70363;SDS011;57785;43.898;1.886;2022-08-01T18:43:08;6.03;;;3.10;;
70363;SDS011;57785;43.898;1.886;2022-08-01T18:45:34;4.35;;;2.40;;
70363;SDS011;57785;43.898;1.886;2022-08-01T18:48:00;9.55;;;2.30;;
70363;SDS011;57785;43.898;1.886;2022-08-01T18:50:26;4.22;;;1.90;;
70363;SDS011;57785;43.898;1.886;2022-08-01T18:52:53;3.97;;;1.58;;
70363;SDS011;57785;43.898;1.886;2022-08-01T18:55:19;3.85;;;1.92;;
70363;SDS011;57785;43.898;1.886;2022-08-01T18:57:45;16.95;;;13.00;;
70363;SDS011;57785;43.898;1.886;2022-08-01T19:00:11;20.23;;;13.32;;
70363;SDS011;57785;43.898;1.886;2022-08-01T19:02:39;16.92;;;12.68;;
70363;SDS011;57785;43.898;1.886;2022-08-01T19:05:06;13.10;;;6.30;;
70363;SDS011;57785;43.898;1.886;2022-08-01T19:07:32;8.57;;;2.40;;
70363;SDS011;57785;43.898;1.886;2022-08-01T19:09:58;3.05;;;1.95;;
70363;SDS011;57785;43.898;1.886;2022-08-01T19:12:24;4.00;;;1.77;;
70363;SDS011;57785;43.898;1.886;2022-08-01T19:14:50;9.82;;;1.90;;
70363;SDS011;57785;43.898;1.886;2022-08-01T19:17:16;10.00;;;2.22;;
70363;SDS011;57785;43.898;1.886;2022-08-01T19:19:44;5.15;;;1.80;;
70363;SDS011;57785;43.898;1.886;2022-08-01T19:22:10;15.05;;;3.75;;
70363;SDS011;57785;43.898;1.886;2022-08-01T19:24:36;6.07;;;2.70;;
70363;SDS011;57785;43.898;1.886;2022-08-01T19:27:05;4.18;;;1.83;;
70363;SDS011;57785;43.898;1.886;2022-08-01T19:29:33;2.72;;;1.80;;
70363;SDS011;57785;43.898;1.886;2022-08-01T19:32:00;4.90;;;1.80;;
70363;SDS011;57785;43.898;1.886;2022-08-01T19:34:26;3.35;;;1.85;;
70363;SDS011;57785;43.898;1.886;2022-08-01T19:36:53;2.97;;;1.55;;
70363;SDS011;57785;43.898;1.886;2022-08-01T19:39:22;2.20;;;1.58;;
70363;SDS011;57785;43.898;1.886;2022-08-01T19:41:51;3.78;;;1.33;;
70363;SDS011;57785;43.898;1.886;2022-08-01T19:44:18;4.30;;;1.88;;
70363;SDS011;57785;43.898;1.886;2022-08-01T19:46:45;2.63;;;1.40;;
70363;SDS011;57785;43.898;1.886;2022-08-01T19:49:11;3.17;;;1.35;;
70363;SDS011;57785;43.898;1.886;2022-08-01T19:51:39;3.83;;;1.52;;
70363;SDS011;57785;43.898;1.886;2022-08-01T19:54:07;4.72;;;1.50;;
70363;SDS011;57785;43.898;1.886;2022-08-01T19:56:38;3.75;;;1.60;;
70363;SDS011;57785;43.898;1.886;2022-08-01T19:59:08;5.38;;;1.70;;
70363;SDS011;57785;43.898;1.886;2022-08-01T20:01:39;2.40;;;1.67;;
70363;SDS011;57785;43.898;1.886;2022-08-01T20:04:05;4.93;;;1.48;;
70363;SDS011;57785;43.898;1.886;2022-08-01T20:06:32;3.17;;;1.30;;
70363;SDS011;57785;43.898;1.886;2022-08-01T20:08:59;4.95;;;1.50;;
70363;SDS011;57785;43.898;1.886;2022-08-01T20:11:25;10.65;;;1.70;;
70363;SDS011;57785;43.898;1.886;2022-08-01T20:13:52;5.75;;;1.38;;
70363;SDS011;57785;43.898;1.886;2022-08-01T20:16:19;3.33;;;1.45;;
70363;SDS011;57785;43.898;1.886;2022-08-01T20:18:46;4.35;;;1.45;;
70363;SDS011;57785;43.898;1.886;2022-08-01T20:21:12;4.03;;;1.40;;
70363;SDS011;57785;43.898;1.886;2022-08-01T20:23:39;7.22;;;1.50;;
70363;SDS011;57785;43.898;1.886;2022-08-01T20:26:06;3.50;;;1.38;;
70363;SDS011;57785;43.898;1.886;2022-08-01T20:28:34;2.10;;;1.42;;
70363;SDS011;57785;43.898;1.886;2022-08-01T20:31:00;4.53;;;1.30;;
70363;SDS011;57785;43.898;1.886;2022-08-01T20:33:26;4.20;;;1.40;;
70363;SDS011;57785;43.898;1.886;2022-08-01T20:35:53;1.88;;;1.40;;
70363;SDS011;57785;43.898;1.886;2022-08-01T20:38:28;3.72;;;1.58;;
70363;SDS011;57785;43.898;1.886;2022-08-01T20:40:56;11.73;;;1.60;;
70363;SDS011;57785;43.898;1.886;2022-08-01T20:43:22;2.65;;;1.40;;
70363;SDS011;57785;43.898;1.886;2022-08-01T20:45:50;2.85;;;1.58;;
70363;SDS011;57785;43.898;1.886;2022-08-01T20:48:17;3.22;;;1.20;;
70363;SDS011;57785;43.898;1.886;2022-08-01T20:50:44;2.25;;;1.70;;
70363;SDS011;57785;43.898;1.886;2022-08-01T20:53:29;2.35;;;1.38;;
70363;SDS011;57785;43.898;1.886;2022-08-01T21:01:09;1.35;;;1.20;;
70363;SDS011;57785;43.898;1.886;2022-08-01T21:03:39;3.85;;;1.45;;
70363;SDS011;57785;43.898;1.886;2022-08-01T21:06:07;1.63;;;1.10;;
70363;SDS011;57785;43.898;1.886;2022-08-01T21:08:40;3.15;;;1.40;;
70363;SDS011;57785;43.898;1.886;2022-08-01T21:11:06;1.63;;;1.02;;
70363;SDS011;57785;43.898;1.886;2022-08-01T21:13:42;2.33;;;1.10;;
70363;SDS011;57785;43.898;1.886;2022-08-01T21:16:12;3.58;;;1.52;;
70363;SDS011;57785;43.898;1.886;2022-08-01T21:21:12;3.33;;;1.52;;
70363;SDS011;57785;43.898;1.886;2022-08-01T21:28:37;2.15;;;1.30;;
70363;SDS011;57785;43.898;1.886;2022-08-01T21:31:03;2.30;;;1.40;;
70363;SDS011;57785;43.898;1.886;2022-08-01T21:33:30;3.17;;;1.30;;
70363;SDS011;57785;43.898;1.886;2022-08-01T21:35:57;1.55;;;1.27;;
70363;SDS011;57785;43.898;1.886;2022-08-01T21:38:24;2.80;;;1.50;;
70363;SDS011;57785;43.898;1.886;2022-08-01T21:40:50;4.53;;;1.60;;
70363;SDS011;57785;43.898;1.886;2022-08-01T21:43:17;2.83;;;1.73;;
70363;SDS011;57785;43.898;1.886;2022-08-01T21:45:43;5.18;;;1.33;;
70363;SDS011;57785;43.898;1.886;2022-08-01T21:48:11;5.88;;;1.40;;
70363;SDS011;57785;43.898;1.886;2022-08-01T21:50:38;5.20;;;1.65;;
70363;SDS011;57785;43.898;1.886;2022-08-01T21:53:13;4.05;;;1.50;;
70363;SDS011;57785;43.898;1.886;2022-08-01T21:55:49;3.17;;;1.33;;
70363;SDS011;57785;43.898;1.886;2022-08-01T22:00:51;2.70;;;1.30;;
70363;SDS011;57785;43.898;1.886;2022-08-01T22:03:22;3.17;;;1.40;;
70363;SDS011;57785;43.898;1.886;2022-08-01T22:05:49;2.63;;;1.70;;
70363;SDS011;57785;43.898;1.886;2022-08-01T22:09:03;3.72;;;1.58;;
70363;SDS011;57785;43.898;1.886;2022-08-01T22:11:06;2.58;;;1.63;;
70363;SDS011;57785;43.898;1.886;2022-08-01T22:13:33;4.47;;;1.83;;
70363;SDS011;57785;43.898;1.886;2022-08-01T22:16:01;3.78;;;1.50;;
70363;SDS011;57785;43.898;1.886;2022-08-01T22:18:27;3.22;;;1.60;;
70363;SDS011;57785;43.898;1.886;2022-08-01T22:20:54;3.25;;;1.48;;
70363;SDS011;57785;43.898;1.886;2022-08-01T22:23:20;1.42;;;1.20;;
70363;SDS011;57785;43.898;1.886;2022-08-01T22:25:49;3.83;;;1.52;;
70363;SDS011;57785;43.898;1.886;2022-08-01T22:28:15;2.35;;;1.48;;
70363;SDS011;57785;43.898;1.886;2022-08-01T22:30:43;2.63;;;1.50;;
70363;SDS011;57785;43.898;1.886;2022-08-01T22:33:09;3.08;;;1.50;;
70363;SDS011;57785;43.898;1.886;2022-08-01T22:35:35;4.95;;;1.55;;
70363;SDS011;57785;43.898;1.886;2022-08-01T22:38:02;4.38;;;1.38;;
70363;SDS011;57785;43.898;1.886;2022-08-01T22:40:28;2.72;;;1.58;;
70363;SDS011;57785;43.898;1.886;2022-08-01T22:43:01;3.03;;;1.48;;
70363;SDS011;57785;43.898;1.886;2022-08-01T22:45:31;5.33;;;1.50;;
70363;SDS011;57785;43.898;1.886;2022-08-01T22:50:38;3.13;;;1.40;;
70363;SDS011;57785;43.898;1.886;2022-08-01T22:53:51;4.35;;;1.58;;
70363;SDS011;57785;43.898;1.886;2022-08-01T22:55:51;2.53;;;1.50;;
70363;SDS011;57785;43.898;1.886;2022-08-01T22:58:18;4.70;;;1.63;;
70363;SDS011;57785;43.898;1.886;2022-08-01T23:00:47;3.45;;;1.60;;
